Terminal Aerodrome Forecast
Issued by NWS

Home | Current Version | Previous Version | Text Only | Print | Product List | Glossary Off
Versions: 1 2 3 4 5 6 7 8 9 10 11 12 13 14 15 16

768
FTUS43 KBIS 042320
TAFMOT
TAF
KMOT 042320Z 0500/0524 17006KT P6SM SCT150
     FM050300 17005KT P6SM BKN110
     FM050500 24004KT P6SM OVC070
     FM050700 30004KT P6SM OVC070
     FM051600 27008KT P6SM BKN060=

USA.gov is the U.S. government's official web portal to all federal, state and local government web resources and services.